Time;durP1;ratioP1;P1;durP2;ratioP2;P2;SDS_P1;SDS_P2;PMS_P1;PMS_P2;Temp;Humidity;BMP_temperature;BMP_pressure;BME280_temperature;BME280_humidity;BME280_pressure;Samples;Min_cycle;Max_cycle;Signal;HPM_P1;HPM_P2
2023/12/14 00:02:09;;;;;;;;;1.00;1.00;;;;;9.01;100.00;100932.91;4998900;28;45365;-79
2023/12/14 00:04:34;;;;;;;;;0.67;0.67;;;;;8.85;100.00;100909.78;4999709;28;50738;-79
2023/12/14 00:07:00;;;;;;;;;3.00;2.00;;;;;8.93;100.00;100933.22;5011528;28;46440;-79
2023/12/14 00:09:25;;;;;;;;;1.00;1.00;;;;;8.92;100.00;100915.69;4998780;28;45220;-79
2023/12/14 00:11:50;;;;;;;;;1.00;1.00;;;;;9.12;100.00;100967.66;5005595;28;45357;-79
2023/12/14 00:14:16;;;;;;;;;2.00;1.00;;;;;9.07;100.00;100967.84;5006204;28;45340;-79
2023/12/14 00:16:41;;;;;;;;;1.00;1.00;;;;;8.96;100.00;100940.16;5004086;28;46458;-79
2023/12/14 00:19:06;;;;;;;;;0.33;0.00;;;;;8.95;100.00;100960.41;5005409;28;45301;-79
2023/12/14 00:21:32;;;;;;;;;0.00;0.00;;;;;9.27;100.00;100999.59;5013153;28;45393;-79
2023/12/14 00:23:57;;;;;;;;;1.00;1.00;;;;;9.18;100.00;100994.69;5008133;28;45326;-79
2023/12/14 00:26:23;;;;;;;;;0.00;0.00;;;;;9.30;100.00;101012.66;5020508;28;45428;-79
2023/12/14 00:28:55;;;;;;;;;0.67;0.67;;;;;8.98;100.00;100969.97;5002340;28;45271;-79
2023/12/14 00:31:21;;;;;;;;;0.67;0.67;;;;;9.27;100.00;101026.00;4993198;28;45413;-79
2023/12/14 00:33:46;;;;;;;;;1.00;1.00;;;;;9.16;100.00;101003.59;4995131;28;45703;-79
2023/12/14 00:36:18;;;;;;;;;3.67;1.00;;;;;9.18;100.00;101022.84;5018725;28;45278;-78
2023/12/14 00:38:46;;;;;;;;;1.00;0.00;;;;;9.02;100.00;100997.94;5016418;28;45545;-78
2023/12/14 00:41:11;;;;;;;;;1.00;1.00;;;;;9.05;100.00;101000.47;4989832;28;45310;-79
2023/12/14 00:43:38;;;;;;;;;0.33;0.33;;;;;9.01;100.00;101009.41;5015809;28;45474;-79
2023/12/14 00:46:07;;;;;;;;;0.67;0.33;;;;;8.94;100.00;100998.22;5000239;28;46754;-80
2023/12/14 00:48:33;;;;;;;;;2.00;1.00;;;;;8.90;100.00;101037.03;4986583;28;45456;-80
2023/12/14 00:50:58;;;;;;;;;0.00;0.00;;;;;9.15;100.00;101084.50;5018980;28;45397;-79
2023/12/14 00:53:24;;;;;;;;;0.00;0.00;;;;;8.72;100.00;101005.22;5015715;28;45522;-79
2023/12/14 00:55:49;;;;;;;;;2.00;1.00;;;;;8.89;100.00;101032.72;4996670;28;47275;-79
2023/12/14 00:58:14;;;;;;;;;1.00;0.00;;;;;8.79;100.00;101035.72;4995064;28;45284;-79
2023/12/14 01:00:40;;;;;;;;;0.33;0.33;;;;;8.72;100.00;101031.59;5014782;28;45321;-79
2023/12/14 01:03:05;;;;;;;;;1.00;1.00;;;;;9.09;100.00;101090.03;5001887;28;45475;-79
2023/12/14 01:05:30;;;;;;;;;0.00;0.00;;;;;8.74;100.00;101041.16;5016811;28;47017;-79
2023/12/14 01:07:58;;;;;;;;;1.00;0.00;;;;;8.63;100.00;101008.19;5021216;28;45306;-79
2023/12/14 01:10:24;;;;;;;;;0.00;0.00;;;;;9.01;100.00;101104.38;5021513;28;45242;-78
2023/12/14 01:12:50;;;;;;;;;0.00;0.00;;;;;8.98;100.00;101101.84;5007414;28;45535;-78
2023/12/14 01:15:15;;;;;;;;;0.00;0.00;;;;;8.74;100.00;101056.97;5014869;28;45480;-79
2023/12/14 01:17:41;;;;;;;;;2.00;0.00;;;;;8.57;100.00;101050.59;5000878;28;45621;-79
2023/12/14 01:20:07;;;;;;;;;1.67;0.00;;;;;8.90;100.00;101110.91;5019331;28;45626;-79
2023/12/14 01:22:33;;;;;;;;;0.00;0.00;;;;;8.84;100.00;101103.22;5001261;28;45576;-80
2023/12/14 01:24:59;;;;;;;;;2.00;0.00;;;;;8.34;100.00;101023.22;5016234;28;46702;-80
2023/12/14 01:27:25;;;;;;;;;0.00;0.00;;;;;8.38;100.00;101026.63;5023019;28;45309;-80
2023/12/14 01:29:53;;;;;;;;;0.00;0.00;;;;;8.48;100.00;101051.75;4994892;28;45513;-80
2023/12/14 01:32:21;;;;;;;;;1.00;0.00;;;;;8.55;100.00;101097.22;4988664;28;45422;-80
2023/12/14 01:34:47;;;;;;;;;0.00;0.00;;;;;8.52;100.00;101076.25;5011570;28;45489;-80
2023/12/14 01:37:12;;;;;;;;;2.00;0.00;;;;;8.80;100.00;101132.41;5001359;28;45390;-80
2023/12/14 01:39:38;;;;;;;;;1.67;0.00;;;;;8.88;100.00;101157.59;5001885;28;45518;-80
2023/12/14 01:42:07;;;;;;;;;0.00;0.00;;;;;8.56;100.00;101097.19;4985129;28;45534;-79
2023/12/14 01:44:32;;;;;;;;;0.00;0.00;;;;;8.87;100.00;101168.16;5012443;28;45556;-79
2023/12/14 01:46:57;;;;;;;;;0.00;0.00;;;;;8.57;100.00;101133.19;5015080;28;45256;-79
2023/12/14 01:49:23;;;;;;;;;2.00;1.00;;;;;8.54;100.00;101141.16;4987734;28;45489;-79
2023/12/14 01:51:50;;;;;;;;;0.00;0.00;;;;;8.37;100.00;101093.44;5014809;28;45307;-79
2023/12/14 01:54:16;;;;;;;;;0.00;0.00;;;;;8.33;100.00;101099.72;5011170;28;45477;-79
2023/12/14 01:56:41;;;;;;;;;0.00;0.00;;;;;8.22;100.00;101092.13;4983615;28;45486;-79
2023/12/14 01:59:06;;;;;;;;;0.00;0.00;;;;;8.35;100.00;101124.25;5007597;28;45504;-79
2023/12/14 02:01:41;;;;;;;;;2.00;0.00;;;;;8.73;100.00;101184.50;5020321;28;45499;-78
2023/12/14 02:04:07;;;;;;;;;0.00;0.00;;;;;8.74;100.00;101198.50;5013117;28;45500;-78
2023/12/14 02:06:35;;;;;;;;;0.33;0.00;;;;;8.55;100.00;101166.63;5015173;28;45381;-79
2023/12/14 02:09:00;;;;;;;;;0.00;0.00;;;;;8.32;100.00;101130.47;4995010;28;45406;-79
2023/12/14 02:11:25;;;;;;;;;0.00;0.00;;;;;8.58;100.00;101179.69;5012961;28;45482;-79
2023/12/14 02:13:51;;;;;;;;;0.33;0.00;;;;;8.65;100.00;101204.09;5003389;28;46113;-79
2023/12/14 02:16:16;;;;;;;;;0.00;0.00;;;;;8.40;100.00;101156.59;5013300;28;45393;-79
2023/12/14 02:18:41;;;;;;;;;0.00;0.00;;;;;8.50;100.00;101194.06;5010890;28;45411;-79
2023/12/14 02:21:09;;;;;;;;;0.33;0.00;;;;;8.41;100.00;101171.47;5019475;28;45421;-78
2023/12/14 02:23:34;;;;;;;;;0.00;0.00;;;;;8.34;100.00;101175.25;5000662;28;47106;-79
2023/12/14 02:26:02;;;;;;;;;0.00;0.00;;;;;8.68;100.00;101218.03;4994675;28;46108;-79
2023/12/14 02:28:27;;;;;;;;;0.00;0.00;;;;;8.70;100.00;101207.47;5021830;28;45392;-79
2023/12/14 02:30:53;;;;;;;;;1.00;0.00;;;;;8.71;100.00;101211.78;5009191;28;45639;-78
2023/12/14 02:33:18;;;;;;;;;0.00;0.00;;;;;8.48;100.00;101180.91;5018699;28;45323;-78
2023/12/14 02:35:43;;;;;;;;;1.00;1.00;;;;;8.57;100.00;101199.09;5006465;28;45352;-78
2023/12/14 02:38:09;;;;;;;;;0.00;0.00;;;;;8.72;100.00;101234.63;5004505;28;45531;-78
2023/12/14 02:40:35;;;;;;;;;0.00;0.00;;;;;8.57;100.00;101208.78;5019123;28;46135;-78
2023/12/14 02:43:00;;;;;;;;;0.00;0.00;;;;;8.65;100.00;101238.38;5018426;28;45359;-78
2023/12/14 02:45:26;;;;;;;;;0.00;0.00;;;;;8.45;100.00;101188.91;5018612;28;45342;-78
2023/12/14 02:47:53;;;;;;;;;0.00;0.00;;;;;8.60;100.00;101219.22;5000274;28;45311;-78
2023/12/14 02:50:19;;;;;;;;;0.00;0.00;;;;;8.63;100.00;101225.25;4993082;28;45662;-78
2023/12/14 02:52:44;;;;;;;;;0.00;0.00;;;;;8.43;100.00;101211.84;4999008;28;45407;-78
2023/12/14 02:55:10;;;;;;;;;1.00;1.00;;;;;8.60;100.00;101230.63;4997470;28;45496;-78
2023/12/14 02:57:35;;;;;;;;;2.00;0.00;;;;;8.73;100.00;101268.88;5000334;28;45448;-78
2023/12/14 03:00:00;;;;;;;;;0.00;0.00;;;;;8.67;100.00;101257.66;5011050;28;45337;-78
2023/12/14 03:02:26;;;;;;;;;0.00;0.00;;;;;8.64;100.00;101245.41;4993426;28;47383;-78
2023/12/14 03:04:51;;;;;;;;;1.00;0.00;;;;;8.78;100.00;101272.22;5010949;28;45433;-78
2023/12/14 03:07:16;;;;;;;;;0.00;0.00;;;;;8.55;100.00;101248.34;5018274;28;45343;-78
2023/12/14 03:09:44;;;;;;;;;0.00;0.00;;;;;8.60;100.00;101248.22;4998404;28;45436;-78
2023/12/14 03:12:12;;;;;;;;;0.00;0.00;;;;;8.49;100.00;101245.03;4919538;28;2437280;-78
2023/12/14 03:14:40;;;;;;;;;0.00;0.00;;;;;8.52;100.00;101237.03;5012840;28;46502;-78
2023/12/14 03:17:12;;;;;;;;;0.00;0.00;;;;;8.61;100.00;101258.69;5010085;28;45323;-78
2023/12/14 03:19:41;;;;;;;;;0.00;0.00;;;;;8.47;100.00;101257.41;5018922;28;45537;-78
2023/12/14 03:22:07;;;;;;;;;0.00;0.00;;;;;8.57;100.00;101266.75;5018673;28;45449;-78
2023/12/14 03:24:32;;;;;;;;;0.00;0.00;;;;;8.71;100.00;101290.91;5019159;28;45384;-78
2023/12/14 03:26:57;;;;;;;;;0.00;0.00;;;;;8.53;100.00;101259.84;5019495;28;45473;-79
2023/12/14 03:29:23;;;;;;;;;2.33;0.00;;;;;8.72;100.00;101303.19;5020056;28;51030;-78
2023/12/14 03:31:48;;;;;;;;;0.00;0.00;;;;;8.52;100.00;101277.44;5006905;28;47115;-78
2023/12/14 03:34:13;;;;;;;;;0.00;0.00;;;;;8.53;100.00;101275.66;5021574;28;45534;-78
2023/12/14 03:36:41;;;;;;;;;0.00;0.00;;;;;8.49;100.00;101298.63;5022343;28;45378;-78
2023/12/14 03:39:06;;;;;;;;;0.33;0.33;;;;;8.36;100.00;101278.81;5015900;28;45298;-78
2023/12/14 03:41:32;;;;;;;;;1.00;0.00;;;;;8.29;100.00;101258.84;5014068;28;45818;-77
2023/12/14 03:43:57;;;;;;;;;0.00;0.00;;;;;8.60;100.00;101307.09;5019673;28;45364;-78
2023/12/14 03:46:23;;;;;;;;;0.00;0.00;;;;;8.44;100.00;101294.41;5007322;28;45359;-78
2023/12/14 03:48:48;;;;;;;;;0.33;0.33;;;;;8.50;100.00;101296.84;5005106;28;45305;-78
2023/12/14 03:51:18;;;;;;;;;1.00;0.33;;;;;8.81;100.00;101360.91;5006666;28;46269;-78
2023/12/14 03:53:43;;;;;;;;;1.00;0.00;;;;;8.60;100.00;101332.56;5012889;28;45455;-78
2023/12/14 03:56:08;;;;;;;;;1.00;1.00;;;;;8.49;100.00;101329.41;5018883;28;45338;-79
2023/12/14 03:58:41;;;;;;;;;0.67;0.67;;;;;8.73;100.00;101374.34;4987731;28;45460;-78
2023/12/14 04:20:32;;;;;;;;;2.00;1.00;;;;;8.85;100.00;101404.75;4989058;28;74823;-79
2023/12/14 04:22:58;;;;;;;;;3.33;1.67;;;;;8.62;100.00;101380.84;4986366;28;45488;-78
2023/12/14 04:25:23;;;;;;;;;2.00;1.67;;;;;8.77;100.00;101418.16;5017981;28;45329;-78
2023/12/14 04:27:49;;;;;;;;;1.00;1.00;;;;;8.71;100.00;101410.44;5012305;28;45543;-78
2023/12/14 04:30:14;;;;;;;;;2.00;1.00;;;;;8.73;100.00;101410.41;5014869;28;45567;-78
2023/12/14 04:32:40;;;;;;;;;4.00;2.33;;;;;8.71;100.00;101407.78;5019706;28;45428;-78
2023/12/14 04:35:06;;;;;;;;;1.00;1.00;;;;;8.54;100.00;101391.59;5011212;28;45578;-78
2023/12/14 04:37:33;;;;;;;;;6.33;2.67;;;;;8.68;100.00;101412.28;4995895;28;45639;-78
2023/12/14 04:39:59;;;;;;;;;2.00;1.00;;;;;8.70;100.00;101453.53;5021315;28;45408;-78
2023/12/14 04:42:24;;;;;;;;;3.33;2.00;;;;;8.73;100.00;101455.22;5013573;28;45429;-77
2023/12/14 04:44:50;;;;;;;;;1.00;1.00;;;;;8.66;100.00;101449.28;5022365;28;45444;-78
2023/12/14 04:47:15;;;;;;;;;1.33;1.33;;;;;8.84;100.00;101471.59;5018434;28;45297;-78
2023/12/14 04:49:41;;;;;;;;;2.67;2.00;;;;;8.73;100.00;101464.00;4984317;28;47126;-78
2023/12/14 04:52:07;;;;;;;;;2.00;1.67;;;;;8.62;100.00;101458.16;5000426;28;45338;-78
2023/12/14 04:54:35;;;;;;;;;2.00;2.00;;;;;8.72;100.00;101479.88;5019358;28;45559;-78
2023/12/14 04:57:00;;;;;;;;;2.00;2.00;;;;;8.66;100.00;101443.13;5015092;28;45549;-78
2023/12/14 04:59:26;;;;;;;;;4.67;3.00;;;;;8.57;100.00;101439.00;5007644;28;45445;-78
2023/12/14 05:01:51;;;;;;;;;2.00;2.00;;;;;8.70;100.00;101464.06;5008076;28;45491;-78
2023/12/14 05:04:16;;;;;;;;;3.00;1.33;;;;;8.74;100.00;101497.38;5011756;28;45424;-77
2023/12/14 05:06:42;;;;;;;;;1.67;1.67;;;;;8.77;100.00;101494.63;5017925;28;45495;-78
2023/12/14 05:09:07;;;;;;;;;2.33;1.33;;;;;8.81;100.00;101508.59;5021293;28;45504;-77
2023/12/14 05:11:32;;;;;;;;;4.00;3.33;;;;;8.77;100.00;101506.97;4989610;28;45495;-77
2023/12/14 05:13:58;;;;;;;;;4.00;3.00;;;;;8.74;100.00;101513.19;5011868;28;45420;-78
2023/12/14 05:16:26;;;;;;;;;2.00;2.00;;;;;8.60;100.00;101482.84;5014804;28;45505;-78
2023/12/14 05:18:57;;;;;;;;;6.67;2.33;;;;;8.66;100.00;101503.78;5013627;28;45290;-77
2023/12/14 05:21:23;;;;;;;;;3.00;3.00;;;;;8.90;100.00;101550.53;4998366;28;45372;-78
2023/12/14 05:23:49;;;;;;;;;8.33;2.00;;;;;8.77;100.00;101531.56;5012428;28;45405;-77
2023/12/14 05:26:14;;;;;;;;;1.33;1.33;;;;;8.69;100.00;101528.28;5015149;28;45332;-77
2023/12/14 05:28:40;;;;;;;;;1.00;1.00;;;;;8.86;100.00;101564.75;5007195;28;46338;-77
2023/12/14 05:31:05;;;;;;;;;4.67;2.00;;;;;8.72;100.00;101551.94;5003903;28;45326;-77
2023/12/14 05:33:31;;;;;;;;;2.67;2.67;;;;;8.53;100.00;101519.06;5003179;28;45245;-77
2023/12/14 05:35:56;;;;;;;;;3.00;2.00;;;;;8.77;100.00;101568.47;5004108;28;45311;-77
2023/12/14 05:38:22;;;;;;;;;4.00;3.00;;;;;8.53;100.00;101516.44;5010103;28;45308;-77
2023/12/14 05:40:47;;;;;;;;;2.00;2.00;;;;;8.63;100.00;101530.22;5024232;28;45275;-77
2023/12/14 05:43:13;;;;;;;;;7.33;4.00;;;;;8.82;100.00;101571.88;5020133;28;45388;-77
2023/12/14 05:45:38;;;;;;;;;4.00;4.00;;;;;8.54;100.00;101531.31;5009188;28;45449;-77
2023/12/14 05:48:05;;;;;;;;;4.67;4.67;;;;;8.65;100.00;101547.72;5000596;28;47713;-77
2023/12/14 05:50:30;;;;;;;;;8.00;7.00;;;;;8.70;100.00;101566.91;5013917;28;45499;-78
2023/12/14 05:52:56;;;;;;;;;5.33;5.33;;;;;8.79;100.00;101592.19;5007608;28;45479;-77
2023/12/14 05:55:21;;;;;;;;;8.33;7.00;;;;;8.52;100.00;101529.66;5009430;28;45529;-78
2023/12/14 05:57:50;;;;;;;;;7.33;6.33;;;;;8.74;100.00;101576.47;4997807;28;46489;-78
2023/12/14 06:00:17;;;;;;;;;7.00;4.00;;;;;8.76;100.00;101582.59;5003669;28;45306;-77
2023/12/14 06:02:43;;;;;;;;;8.00;3.67;;;;;8.67;100.00;101574.06;4999861;28;45394;-77
2023/12/14 06:05:08;;;;;;;;;2.33;2.33;;;;;8.83;100.00;101617.59;5002616;28;45318;-77
2023/12/14 06:07:34;;;;;;;;;5.00;2.33;;;;;8.63;100.00;101572.41;5020341;28;45712;-77
2023/12/14 06:10:00;;;;;;;;;3.00;3.00;;;;;8.86;100.00;101639.47;5003920;28;45311;-77
2023/12/14 06:12:30;;;;;;;;;2.33;2.33;;;;;8.64;100.00;101597.84;5000939;28;45417;-77
2023/12/14 06:14:55;;;;;;;;;3.00;2.00;;;;;8.60;100.00;101593.59;5000654;28;45375;-77
2023/12/14 06:17:23;;;;;;;;;3.33;2.00;;;;;8.58;100.00;101593.63;5012927;28;45418;-78
2023/12/14 06:19:48;;;;;;;;;5.33;3.00;;;;;8.87;100.00;101674.59;5012110;28;45377;-77
2023/12/14 06:22:16;;;;;;;;;4.33;3.00;;;;;8.87;100.00;101670.19;4987918;28;45434;-78
2023/12/14 06:24:41;;;;;;;;;1.00;1.00;;;;;8.48;100.00;101612.34;5007919;28;45429;-77
2023/12/14 06:27:07;;;;;;;;;2.33;1.67;;;;;8.61;100.00;101645.41;5019912;28;45451;-78
2023/12/14 06:29:32;;;;;;;;;2.00;2.00;;;;;8.60;100.00;101630.50;4999896;28;45317;-77
2023/12/14 06:31:57;;;;;;;;;2.00;2.00;;;;;8.64;100.00;101638.28;5019739;28;45373;-77
2023/12/14 06:34:23;;;;;;;;;3.00;3.00;;;;;8.68;100.00;101665.44;5020107;28;45433;-76
2023/12/14 06:36:58;;;;;;;;;6.33;4.00;;;;;8.75;100.00;101667.03;5019968;28;46411;-76
2023/12/14 06:39:23;;;;;;;;;6.00;3.00;;;;;8.51;100.00;101650.03;5020163;28;45932;-76
2023/12/14 06:41:52;;;;;;;;;3.33;2.33;;;;;8.46;100.00;101654.59;5016913;28;45562;-76
2023/12/14 06:44:21;;;;;;;;;4.00;3.33;;;;;8.94;100.00;101721.03;5020975;28;45452;-77
2023/12/14 06:46:49;;;;;;;;;2.67;2.33;;;;;8.33;100.00;101624.16;5022384;28;46517;-76
2023/12/14 06:49:15;;;;;;;;;2.00;2.00;;;;;8.37;100.00;101646.91;5020426;28;45317;-76
2023/12/14 06:51:40;;;;;;;;;3.67;2.00;;;;;8.75;100.00;101709.22;5017900;28;45367;-76
2023/12/14 06:54:06;;;;;;;;;3.67;2.67;;;;;8.84;100.00;101730.94;5008453;28;45299;-76
2023/12/14 06:56:31;;;;;;;;;2.00;2.00;;;;;8.67;100.00;101717.31;4998377;28;47992;-76
2023/12/14 06:59:07;;;;;;;;;1.33;1.33;;;;;8.88;100.00;101758.13;5012383;28;45282;-76
2023/12/14 07:01:32;;;;;;;;;1.33;1.33;;;;;8.48;100.00;101709.88;5006895;28;45477;-76
2023/12/14 07:03:58;;;;;;;;;2.00;2.00;;;;;8.50;100.00;101706.34;5013414;28;45477;-77
2023/12/14 07:06:23;;;;;;;;;2.00;2.00;;;;;8.93;100.00;101765.94;4997116;28;46242;-76
2023/12/14 07:08:57;;;;;;;;;1.00;1.00;;;;;8.92;100.00;101775.63;5008567;28;45396;-77
2023/12/14 07:11:22;;;;;;;;;4.00;2.00;;;;;8.69;100.00;101765.63;5012448;28;45371;-76
2023/12/14 07:13:48;;;;;;;;;3.00;2.00;;;;;8.47;100.00;101718.72;4992014;28;45502;-76
2023/12/14 07:16:13;;;;;;;;;1.00;1.00;;;;;8.60;100.00;101751.78;4995122;28;47199;-76
2023/12/14 07:18:41;;;;;;;;;3.00;3.00;;;;;8.40;100.00;101723.28;5011572;28;45518;-76
2023/12/14 07:21:07;;;;;;;;;3.00;1.00;;;;;8.71;100.00;101765.56;4983467;28;45421;-77
2023/12/14 07:23:36;;;;;;;;;3.67;2.00;;;;;8.87;100.00;101783.63;5021998;28;45391;-76
2023/12/14 07:26:02;;;;;;;;;3.00;3.00;;;;;8.39;100.00;101737.34;5000240;28;47845;-77
2023/12/14 07:28:27;;;;;;;;;3.00;2.00;;;;;8.36;100.00;101743.56;5012836;28;45534;-77
2023/12/14 07:30:53;;;;;;;;;2.00;2.00;;;;;8.31;100.00;101726.97;4991433;28;45370;-77
2023/12/14 07:33:18;;;;;;;;;2.00;2.00;;;;;8.67;100.00;101799.06;4996704;28;45414;-77
2023/12/14 07:35:44;;;;;;;;;1.00;1.00;;;;;8.55;100.00;101774.75;5009522;28;45392;-77
2023/12/14 07:38:12;;;;;;;;;1.00;1.00;;;;;8.54;100.00;101779.16;5014338;28;45580;-78
2023/12/14 07:40:41;;;;;;;;;2.67;1.67;;;;;8.35;100.00;101751.47;5024896;28;45397;-78
2023/12/14 07:43:09;;;;;;;;;1.67;1.00;;;;;8.88;100.00;101863.63;5008796;28;45378;-77
2023/12/14 07:45:35;;;;;;;;;2.00;0.33;;;;;8.75;100.00;101817.34;5005819;28;48317;-77
2023/12/14 07:48:01;;;;;;;;;1.67;1.67;;;;;8.77;100.00;101840.16;5019919;28;45757;-78
2023/12/14 07:50:26;;;;;;;;;4.00;2.00;;;;;8.53;100.00;101808.22;5021105;28;45360;-78
2023/12/14 07:52:52;;;;;;;;;1.67;1.00;;;;;8.43;100.00;101794.38;5005248;28;45499;-78
2023/12/14 07:55:18;;;;;;;;;2.33;1.67;;;;;8.90;100.00;101881.16;4998105;28;47225;-78
2023/12/14 07:57:44;;;;;;;;;2.67;1.00;;;;;8.35;100.00;101788.38;5009066;28;45405;-78
2023/12/14 08:00:10;;;;;;;;;4.00;1.00;;;;;8.50;100.00;101819.69;4987998;28;45463;-77
2023/12/14 08:02:35;;;;;;;;;2.00;1.00;;;;;8.29;100.00;101821.03;5007595;28;45495;-78
2023/12/14 08:05:01;;;;;;;;;4.00;2.00;;;;;8.46;100.00;101839.13;5015181;28;45423;-77
2023/12/14 08:07:28;;;;;;;;;4.67;1.33;;;;;8.50;100.00;101835.50;5018788;28;45300;-76
2023/12/14 08:09:55;;;;;;;;;3.33;3.00;;;;;8.69;100.00;101884.31;5006493;28;45314;-76
2023/12/14 08:12:23;;;;;;;;;3.67;1.00;;;;;8.54;100.00;101875.88;5010584;28;45383;-76
2023/12/14 08:14:49;;;;;;;;;3.00;3.00;;;;;8.43;100.00;101868.19;4993593;28;46360;-75
2023/12/14 08:17:19;;;;;;;;;1.33;1.33;;;;;8.77;100.00;101934.22;5000566;28;44883;-77
2023/12/14 08:19:45;;;;;;;;;5.33;3.33;;;;;8.40;100.00;101878.78;4989074;28;45426;-75
2023/12/14 08:22:12;;;;;;;;;4.00;4.00;;;;;8.35;100.00;101875.38;4993326;28;45252;-77
2023/12/14 08:24:44;;;;;;;;;2.67;2.67;;;;;8.38;100.00;101891.13;5009675;28;45736;-77
2023/12/14 08:27:09;;;;;;;;;4.00;4.00;;;;;8.17;100.00;101852.00;5007935;28;45307;-76
2023/12/14 08:29:35;;;;;;;;;4.00;2.00;;;;;8.44;100.00;101896.28;4991890;28;45391;-77
2023/12/14 08:32:01;;;;;;;;;2.67;2.67;;;;;8.56;100.00;101938.19;5015894;28;45507;-77
2023/12/14 08:34:27;;;;;;;;;3.00;3.00;;;;;8.33;100.00;101898.25;5014172;28;45715;-76
2023/12/14 08:36:53;;;;;;;;;3.00;3.00;;;;;8.38;100.00;101885.84;5004846;28;45405;-76
2023/12/14 08:39:19;;;;;;;;;3.00;3.00;;;;;8.54;100.00;101926.81;5001564;28;45528;-77
2023/12/14 08:41:46;;;;;;;;;5.33;3.00;;;;;8.32;100.00;101918.47;5018115;28;45484;-76
2023/12/14 08:44:12;;;;;;;;;3.33;2.00;;;;;8.74;100.00;101964.19;5018143;28;45719;-77
2023/12/14 08:46:45;;;;;;;;;7.00;3.00;;;;;8.81;100.00;101981.63;5020374;28;45366;-78
2023/12/14 08:49:12;;;;;;;;;4.67;3.00;;;;;8.81;100.00;101976.34;5007603;28;45460;-77
2023/12/14 08:51:38;;;;;;;;;4.00;3.33;;;;;8.50;100.00;101925.16;5017777;28;45237;-78
2023/12/14 08:54:04;;;;;;;;;5.67;4.00;;;;;8.79;100.00;101979.91;5007511;28;46368;-78
2023/12/14 08:56:30;;;;;;;;;7.00;4.00;;;;;8.78;100.00;101983.44;4987882;28;45472;-77
2023/12/14 08:58:55;;;;;;;;;2.00;2.00;;;;;8.78;100.00;101989.59;5018345;28;45420;-78
2023/12/14 09:01:22;;;;;;;;;4.00;3.00;;;;;8.81;100.00;101991.28;5006996;28;45452;-76
2023/12/14 09:03:47;;;;;;;;;4.00;2.67;;;;;8.80;100.00;102000.97;5011701;28;45439;-77
2023/12/14 09:06:14;;;;;;;;;4.33;3.00;;;;;8.19;100.00;101909.03;5011518;28;45452;-77
2023/12/14 09:08:40;;;;;;;;;3.67;2.00;;;;;8.66;100.00;102010.06;5011653;28;45515;-77
2023/12/14 09:11:06;;;;;;;;;6.33;3.33;;;;;8.54;100.00;101982.16;5010537;28;45308;-77
2023/12/14 09:13:31;;;;;;;;;2.67;2.00;;;;;8.75;100.00;102017.81;5017856;28;45402;-76
2023/12/14 09:15:57;;;;;;;;;2.00;2.00;;;;;8.50;100.00;101985.78;5021127;28;45278;-77
2023/12/14 09:18:23;;;;;;;;;3.33;3.00;;;;;8.64;100.00;102012.72;5020967;28;45306;-77
2023/12/14 09:20:51;;;;;;;;;2.67;2.67;;;;;8.63;100.00;102007.50;5021131;28;45488;-77
2023/12/14 09:23:18;;;;;;;;;2.00;2.00;;;;;8.72;100.00;102017.88;5019497;28;46270;-77
2023/12/14 09:25:49;;;;;;;;;4.00;4.00;;;;;8.68;100.00;102014.41;5023362;28;46026;-77
2023/12/14 09:28:18;;;;;;;;;5.33;4.00;;;;;8.55;100.00;101988.31;5013570;28;45402;-76
2023/12/14 09:30:44;;;;;;;;;4.67;3.33;;;;;8.48;100.00;101978.78;4985266;28;45531;-77
2023/12/14 09:33:10;;;;;;;;;5.67;3.67;;;;;8.84;100.00;102036.94;5001775;28;45556;-77
2023/12/14 09:35:36;;;;;;;;;5.50;3.00;;;;;8.41;100.00;101988.59;5019578;28;45459;-76
2023/12/14 09:38:03;;;;;;;;;3.00;3.00;;;;;8.77;100.00;102059.06;5003095;28;45343;-76
2023/12/14 09:40:29;;;;;;;;;3.33;3.33;;;;;8.79;100.00;102049.38;5003209;28;45675;-77
2023/12/14 09:42:55;;;;;;;;;3.00;3.00;;;;;8.83;100.00;102052.81;5002785;28;45431;-76
2023/12/14 09:45:27;;;;;;;;;4.33;3.00;;;;;8.84;100.00;102065.97;4989951;28;45974;-76
2023/12/14 09:47:53;;;;;;;;;4.00;4.00;;;;;8.87;100.00;102062.38;5018297;28;45285;-76
2023/12/14 09:50:20;;;;;;;;;6.33;6.33;;;;;8.51;100.00;102007.75;5006263;28;45543;-76
2023/12/14 09:52:48;;;;;;;;;5.00;3.67;;;;;8.61;100.00;102033.91;5008758;28;47313;-76
2023/12/14 09:55:15;;;;;;;;;7.33;5.00;;;;;8.80;100.00;102068.72;5019007;28;45473;-77
2023/12/14 09:57:40;;;;;;;;;3.33;3.00;;;;;8.48;100.00;102019.22;4993587;28;45470;-77
2023/12/14 10:00:10;;;;;;;;;4.67;3.67;;;;;8.82;100.00;102080.97;5019208;28;45521;-77
2023/12/14 10:02:36;;;;;;;;;4.00;4.00;;;;;8.87;100.00;102089.66;5009496;28;46058;-77
2023/12/14 10:05:01;;;;;;;;;5.00;5.00;;;;;8.80;100.00;102069.56;5018103;28;45562;-77
2023/12/14 10:07:26;;;;;;;;;6.00;3.33;;;;;8.85;100.00;102088.81;5009720;28;46064;-78
2023/12/14 10:09:53;;;;;;;;;3.00;3.00;;;;;8.88;100.00;102082.59;5019381;28;45451;-77
2023/12/14 10:12:19;;;;;;;;;7.67;5.00;;;;;8.73;100.00;102069.72;5013265;28;46322;-76
2023/12/14 10:14:45;;;;;;;;;4.00;4.00;;;;;8.71;100.00;102047.75;5013733;28;45488;-76
2023/12/14 10:17:15;;;;;;;;;3.00;1.67;;;;;8.99;100.00;102098.22;4990128;28;45485;-77
2023/12/14 10:19:46;;;;;;;;;4.67;3.33;;;;;8.79;100.00;102070.47;5020301;28;45227;-76
2023/12/14 10:22:15;;;;;;;;;2.00;2.00;;;;;8.78;100.00;102066.09;5011226;28;45386;-76
2023/12/14 10:24:45;;;;;;;;;9.00;3.00;;;;;9.10;100.00;102117.34;5016071;28;45340;-77
2023/12/14 10:27:11;;;;;;;;;3.00;3.00;;;;;9.16;100.00;102128.63;5008690;28;45472;-76
2023/12/14 10:29:40;;;;;;;;;5.67;3.67;;;;;9.07;100.00;102114.75;5013467;28;45294;-76
2023/12/14 10:32:08;;;;;;;;;4.00;3.00;;;;;8.77;100.00;102097.75;4988399;28;45466;-77
2023/12/14 10:34:35;;;;;;;;;4.00;3.00;;;;;8.86;100.00;102122.22;5006461;28;45560;-76
2023/12/14 10:37:01;;;;;;;;;2.00;2.00;;;;;8.99;100.00;102137.81;5009478;28;45425;-76
2023/12/14 10:39:28;;;;;;;;;5.00;4.00;;;;;9.13;100.00;102164.81;4988725;28;45371;-76
2023/12/14 10:41:56;;;;;;;;;4.00;3.33;;;;;9.04;100.00;102138.56;5010610;28;46080;-75
2023/12/14 10:44:26;;;;;;;;;4.00;3.00;;;;;8.98;100.00;102129.00;4998684;28;45503;-78
2023/12/14 10:46:58;;;;;;;;;2.67;2.67;;;;;8.97;100.00;102140.47;5020038;28;45298;-77
2023/12/14 10:49:25;;;;;;;;;5.00;4.00;;;;;9.28;100.00;102153.94;5006264;28;45313;-77
2023/12/14 10:51:56;;;;;;;;;5.00;3.00;;;;;9.09;100.00;102110.34;5012652;28;45483;-76
2023/12/14 10:54:24;;;;;;;;;3.67;3.00;;;;;8.99;100.00;102099.09;5010146;28;45490;-77
2023/12/14 10:56:50;;;;;;;;;4.67;3.67;;;;;9.18;100.00;102150.63;5015553;28;45260;-77
2023/12/14 10:59:19;;;;;;;;;4.67;4.00;;;;;9.38;100.00;102179.25;5020147;28;45235;-75
2023/12/14 11:01:44;;;;;;;;;6.67;3.00;;;;;9.36;100.00;102174.00;5006339;28;45474;-77
2023/12/14 11:04:13;;;;;;;;;4.67;3.00;;;;;8.93;100.00;102114.19;5019844;28;45252;-77
2023/12/14 11:06:40;;;;;;;;;6.33;3.33;;;;;8.87;100.00;102087.00;5001904;28;45425;-76
2023/12/14 11:09:07;;;;;;;;;9.00;4.00;;;;;9.10;100.00;102138.44;4998547;28;45521;-75
2023/12/14 11:11:48;;;;;;;;;4.33;4.33;;;;;9.40;100.00;102190.63;5003234;28;46442;-77
2023/12/14 11:14:13;;;;;;;;;3.67;2.00;;;;;9.39;100.00;102197.69;5011897;28;45354;-76
2023/12/14 11:16:46;;;;;;;;;3.00;2.00;;;;;9.31;100.00;102181.16;5018856;28;45693;-76
2023/12/14 11:19:25;;;;;;;;;2.33;2.33;;;;;8.92;100.00;102131.78;4989039;28;45400;-77
2023/12/14 11:21:57;;;;;;;;;5.00;2.00;;;;;9.38;100.00;102188.06;5019072;28;45506;-78
2023/12/14 11:24:28;;;;;;;;;2.00;2.00;;;;;9.28;100.00;102175.06;5018805;28;45515;-77
2023/12/14 11:26:53;;;;;;;;;2.00;2.00;;;;;8.92;100.00;102105.41;4991979;28;45499;-76
2023/12/14 11:29:20;;;;;;;;;5.00;2.00;;;;;9.44;100.00;102197.59;5004857;28;46401;-76
2023/12/14 11:31:46;;;;;;;;;1.00;1.00;;;;;9.32;100.00;102189.94;5007682;28;45381;-77
2023/12/14 11:34:12;;;;;;;;;8.33;3.00;;;;;9.43;100.00;102202.00;5012929;28;45524;-77
2023/12/14 11:36:41;;;;;;;;;3.00;2.00;;;;;9.38;100.00;102195.09;5012590;28;45372;-77
2023/12/14 11:39:07;;;;;;;;;8.00;2.33;;;;;9.54;100.00;102201.81;5012368;28;45346;-76
2023/12/14 11:41:34;;;;;;;;;1.00;1.00;;;;;9.56;100.00;102189.44;5018267;28;45396;-76